createdAt,value
2018-05-12T00:00:26.631Z,99.90
2018-05-12T00:01:29.131Z,99.90
2018-05-12T00:02:31.638Z,99.90
2018-05-12T00:03:34.159Z,99.90
2018-05-12T00:04:37.445Z,99.90
2018-05-12T00:05:40.714Z,99.90
2018-05-12T00:06:43.232Z,99.90
2018-05-12T00:07:45.728Z,99.90
2018-05-12T00:08:48.249Z,99.90
2018-05-12T00:09:51.534Z,99.90
2018-05-12T00:10:54.813Z,99.90
2018-05-12T00:11:58.102Z,99.90
2018-05-12T00:13:01.375Z,99.90
2018-05-12T00:14:04.669Z,99.90
2018-05-12T00:15:07.187Z,99.90
2018-05-12T00:16:09.685Z,99.90
2018-05-12T00:17:12.189Z,99.90
2018-05-12T00:18:15.455Z,99.90
2018-05-12T00:19:17.962Z,99.90
2018-05-12T00:20:20.483Z,99.90
2018-05-12T00:21:22.996Z,99.90
2018-05-12T00:22:26.272Z,99.90
2018-05-12T00:23:29.529Z,99.90
2018-05-12T00:24:32.044Z,99.90
2018-05-12T00:25:35.322Z,99.90
2018-05-12T00:26:38.575Z,99.90
2018-05-12T00:27:41.069Z,99.90
2018-05-12T00:28:43.576Z,99.90
2018-05-12T00:29:46.092Z,99.90
2018-05-12T00:30:48.607Z,99.90
2018-05-12T00:31:51.125Z,99.90
2018-05-12T00:32:53.645Z,99.90
2018-05-12T00:33:56.146Z,99.90
2018-05-12T00:34:58.653Z,99.90
2018-05-12T00:36:01.169Z,99.90
2018-05-12T00:37:03.678Z,99.90
2018-05-12T00:38:06.184Z,99.90
2018-05-12T00:39:09.466Z,99.90
2018-05-12T00:40:11.953Z,99.90
2018-05-12T00:41:15.257Z,99.90
2018-05-12T00:42:17.762Z,99.90
2018-05-12T00:43:20.267Z,99.90
2018-05-12T00:44:22.777Z,99.90
2018-05-12T00:45:25.289Z,99.90
2018-05-12T00:46:27.803Z,99.90
2018-05-12T00:47:30.308Z,99.90
2018-05-12T00:48:32.802Z,99.90
2018-05-12T00:49:35.299Z,99.90
2018-05-12T00:50:38.590Z,99.90
2018-05-12T00:51:41.104Z,99.90
2018-05-12T00:52:43.629Z,99.90
2018-05-12T00:53:46.907Z,99.90
2018-05-12T00:54:50.162Z,99.90
2018-05-12T00:55:52.670Z,99.90
2018-05-12T00:56:55.936Z,99.90
2018-05-12T00:57:58.441Z,99.90
2018-05-12T00:59:00.967Z,99.90
2018-05-12T01:00:03.470Z,99.90
2018-05-12T01:01:06.777Z,99.90
2018-05-12T01:02:09.302Z,99.90
2018-05-12T01:03:11.797Z,99.90
2018-05-12T01:04:15.059Z,99.90
2018-05-12T01:05:17.593Z,99.90
2018-05-12T01:06:20.103Z,99.90
2018-05-12T01:07:22.629Z,99.90
2018-05-12T01:08:25.126Z,99.90
2018-05-12T01:09:27.659Z,99.90
2018-05-12T01:10:30.168Z,99.90
2018-05-12T01:11:32.703Z,99.90
2018-05-12T01:12:35.211Z,99.90
2018-05-12T01:13:37.775Z,99.90
2018-05-12T01:14:40.248Z,99.90
2018-05-12T01:15:42.749Z,99.90
2018-05-12T01:16:45.268Z,99.90
2018-05-12T01:17:47.777Z,99.90
2018-05-12T01:18:50.283Z,99.90
2018-05-12T01:19:53.543Z,99.90
2018-05-12T01:20:56.032Z,99.90
2018-05-12T01:21:59.304Z,99.90
2018-05-12T01:23:01.831Z,99.90
2018-05-12T01:24:04.336Z,99.90
2018-05-12T01:25:07.612Z,99.90
2018-05-12T01:26:10.140Z,99.90
2018-05-12T01:27:12.636Z,99.90
2018-05-12T01:28:15.144Z,99.90
2018-05-12T01:29:17.641Z,99.90
2018-05-12T01:30:20.170Z,99.90
2018-05-12T01:31:22.676Z,99.90
2018-05-12T01:32:25.953Z,99.90
2018-05-12T01:33:28.493Z,99.90
2018-05-12T01:34:31.009Z,99.90
2018-05-12T01:35:34.305Z,99.90
2018-05-12T01:36:37.563Z,99.90
2018-05-12T01:37:40.052Z,99.90
2018-05-12T01:38:43.334Z,99.90
2018-05-12T01:39:46.617Z,99.90
2018-05-12T01:40:49.116Z,99.90
2018-05-12T01:41:51.612Z,99.90
2018-05-12T01:42:54.102Z,99.90
2018-05-12T01:43:56.615Z,99.90
2018-05-12T01:44:59.876Z,99.90
2018-05-12T01:46:03.157Z,99.90
2018-05-12T01:47:05.667Z,99.90
2018-05-12T01:48:08.210Z,99.90
2018-05-12T01:49:10.728Z,99.90
2018-05-12T01:50:13.355Z,99.90
2018-05-12T01:51:15.843Z,99.90
2018-05-12T01:52:19.092Z,99.90
2018-05-12T01:53:21.611Z,99.90
2018-05-12T01:54:24.102Z,99.90
2018-05-12T01:55:26.611Z,99.90
2018-05-12T01:56:29.114Z,99.90
2018-05-12T01:57:32.380Z,99.90
2018-05-12T01:58:34.881Z,99.90
2018-05-12T01:59:37.393Z,99.90
2018-05-12T02:00:39.905Z,99.90
2018-05-12T02:01:43.158Z,99.90
2018-05-12T02:02:45.662Z,99.90
2018-05-12T02:03:48.946Z,99.90
2018-05-12T02:04:51.509Z,99.90
2018-05-12T02:05:54.015Z,99.90
2018-05-12T02:06:56.517Z,99.90
2018-05-12T02:07:59.012Z,99.90
2018-05-12T02:09:01.505Z,99.90
2018-05-12T02:10:04.808Z,99.90
2018-05-12T02:11:08.079Z,99.90
2018-05-12T02:12:11.390Z,99.90
2018-05-12T02:13:13.907Z,99.90
2018-05-12T02:14:16.440Z,99.90
2018-05-12T02:15:18.964Z,99.90
2018-05-12T02:16:21.474Z,99.90
2018-05-12T02:17:23.973Z,99.90
2018-05-12T02:18:26.459Z,99.90
2018-05-12T02:19:28.973Z,99.90
2018-05-12T02:20:32.260Z,99.90
2018-05-12T02:21:35.530Z,99.90
2018-05-12T02:22:38.021Z,99.90
2018-05-12T02:23:41.292Z,99.90
2018-05-12T02:24:43.800Z,99.90
2018-05-12T02:25:46.326Z,99.90
2018-05-12T02:26:48.842Z,99.90
2018-05-12T02:27:51.334Z,99.90
2018-05-12T02:28:53.818Z,99.90
2018-05-12T02:29:56.302Z,99.90
2018-05-12T02:30:58.828Z,99.90
2018-05-12T02:32:01.317Z,99.90
2018-05-12T02:33:03.833Z,99.90
2018-05-12T02:34:07.088Z,99.90
2018-05-12T02:35:09.622Z,99.90
2018-05-12T02:36:12.119Z,99.90
2018-05-12T02:37:14.632Z,99.90
2018-05-12T02:38:17.902Z,99.90
2018-05-12T02:39:20.394Z,99.90
2018-05-12T02:40:23.674Z,99.90
2018-05-12T02:41:26.949Z,99.90
2018-05-12T02:42:29.457Z,99.90
2018-05-12T02:43:31.977Z,99.90
2018-05-12T02:44:34.484Z,99.90
2018-05-12T02:45:37.781Z,99.90
2018-05-12T02:46:40.338Z,99.90
2018-05-12T02:47:43.828Z,99.90
2018-05-12T02:48:47.106Z,99.90
2018-05-12T02:49:50.390Z,99.90
2018-05-12T02:50:52.923Z,99.90
2018-05-12T02:51:55.421Z,99.90
2018-05-12T02:52:57.926Z,99.90
2018-05-12T02:54:01.206Z,99.90
2018-05-12T02:55:04.482Z,99.90
2018-05-12T02:56:07.772Z,99.90
2018-05-12T02:57:10.297Z,99.90
2018-05-12T02:58:12.816Z,99.90
2018-05-12T02:59:16.102Z,99.90
2018-05-12T03:00:18.605Z,99.90
2018-05-12T03:01:21.122Z,99.90
2018-05-12T03:02:23.626Z,99.90
2018-05-12T03:03:26.906Z,99.90
2018-05-12T03:04:29.422Z,99.90
2018-05-12T03:05:31.917Z,99.90
2018-05-12T03:06:34.427Z,99.90
2018-05-12T03:07:37.693Z,99.90
2018-05-12T03:08:40.220Z,99.90
2018-05-12T03:09:42.711Z,99.90
2018-05-12T03:10:45.220Z,99.90
2018-05-12T03:11:48.500Z,99.90
2018-05-12T03:12:51.795Z,99.90
2018-05-12T03:13:55.062Z,99.90
2018-05-12T03:14:57.550Z,99.90
2018-05-12T03:16:00.827Z,99.90
2018-05-12T03:17:03.332Z,99.90
2018-05-12T03:18:05.835Z,99.90
2018-05-12T03:19:08.337Z,99.90
2018-05-12T03:20:10.872Z,99.90
2018-05-12T03:21:13.356Z,99.90
2018-05-12T03:22:15.846Z,99.90
2018-05-12T03:23:18.357Z,99.90
2018-05-12T03:24:20.850Z,99.90
2018-05-12T03:25:23.370Z,99.90
2018-05-12T03:26:25.970Z,99.90
2018-05-12T03:27:28.479Z,99.90
2018-05-12T03:28:30.985Z,99.90
2018-05-12T03:29:33.502Z,99.90
2018-05-12T03:30:35.999Z,99.90
2018-05-12T03:31:38.531Z,99.90
2018-05-12T03:32:41.014Z,99.90
2018-05-12T03:33:43.516Z,99.90
2018-05-12T03:34:46.036Z,99.90
2018-05-12T03:35:48.541Z,99.90
2018-05-12T03:36:51.034Z,99.90
2018-05-12T03:37:53.523Z,99.90
2018-05-12T03:38:56.830Z,99.90
2018-05-12T03:39:59.322Z,99.90
2018-05-12T03:41:01.817Z,99.90
2018-05-12T03:42:04.311Z,99.90
2018-05-12T03:43:06.819Z,99.90
2018-05-12T03:44:09.340Z,99.90
2018-05-12T03:45:11.895Z,99.90
2018-05-12T03:46:14.399Z,99.90
2018-05-12T03:47:16.922Z,99.90
2018-05-12T03:48:19.432Z,99.90
2018-05-12T03:49:21.942Z,99.90
2018-05-12T03:50:24.462Z,99.90
2018-05-12T03:51:26.945Z,99.90
2018-05-12T03:52:29.445Z,99.90
2018-05-12T03:53:31.937Z,99.90
2018-05-12T03:54:34.458Z,99.90
2018-05-12T03:55:37.729Z,99.90
2018-05-12T03:56:40.227Z,99.90
2018-05-12T03:57:43.496Z,99.90
2018-05-12T03:58:46.003Z,99.90
2018-05-12T03:59:48.517Z,99.90
2018-05-12T04:00:51.024Z,99.90
2018-05-12T04:01:54.299Z,99.90
2018-05-12T04:02:56.813Z,99.90
2018-05-12T04:03:59.319Z,99.90
2018-05-12T04:05:13.721Z,99.90
2018-05-12T04:06:28.078Z,99.90
2018-05-12T04:07:42.546Z,99.90
2018-05-12T04:08:56.979Z,99.90
2018-05-12T04:10:11.484Z,99.90
2018-05-12T04:12:51.545Z,99.90
2018-05-12T04:13:54.045Z,99.90
2018-05-12T04:14:57.310Z,99.90
2018-05-12T04:15:59.834Z,99.90
2018-05-12T04:17:02.324Z,99.90
2018-05-12T04:18:06.616Z,99.90
2018-05-12T04:19:09.129Z,99.90
2018-05-12T04:20:11.676Z,99.90
2018-05-12T04:21:14.193Z,99.90
2018-05-12T04:22:17.472Z,99.90
2018-05-12T04:23:19.993Z,99.90
2018-05-12T04:24:22.516Z,99.90
2018-05-12T04:25:25.809Z,99.90
2018-05-12T04:26:29.066Z,99.90
2018-05-12T04:27:31.579Z,99.90
2018-05-12T04:28:34.860Z,99.90
2018-05-12T04:29:38.148Z,99.90
2018-05-12T04:30:41.443Z,99.90
2018-05-12T04:31:43.949Z,99.90
2018-05-12T04:32:46.464Z,99.90
2018-05-12T04:33:48.962Z,99.90
2018-05-12T04:34:51.491Z,99.90
2018-05-12T04:35:54.012Z,99.90
2018-05-12T04:36:56.524Z,99.90
2018-05-12T04:37:59.026Z,99.90
2018-05-12T04:39:02.310Z,99.90
2018-05-12T04:40:05.579Z,99.90
2018-05-12T04:41:08.081Z,99.90
2018-05-12T04:42:11.378Z,99.90
2018-05-12T04:43:13.904Z,99.90
2018-05-12T04:44:16.424Z,99.90
2018-05-12T04:45:18.935Z,99.90
2018-05-12T04:46:21.430Z,99.90
2018-05-12T04:47:23.969Z,99.90
2018-05-12T04:48:26.479Z,99.90
2018-05-12T04:49:29.797Z,99.90
2018-05-12T04:50:32.315Z,99.90
2018-05-12T04:51:34.815Z,99.90
2018-05-12T04:52:38.084Z,99.90
2018-05-12T04:53:40.579Z,99.90
2018-05-12T04:54:43.880Z,99.90
2018-05-12T04:55:46.398Z,99.90
2018-05-12T04:56:48.899Z,99.90
2018-05-12T04:57:52.210Z,99.90
2018-05-12T04:58:54.734Z,99.90
2018-05-12T04:59:57.231Z,99.90
2018-05-12T05:01:00.541Z,99.90
2018-05-12T05:02:03.056Z,99.90
2018-05-12T05:03:05.550Z,99.90
2018-05-12T05:04:08.068Z,99.90
2018-05-12T05:05:10.583Z,99.90
2018-05-12T05:06:13.085Z,99.90
2018-05-12T05:07:15.584Z,99.90
2018-05-12T05:08:18.115Z,99.90
2018-05-12T05:09:21.386Z,99.90
2018-05-12T05:10:24.666Z,99.90
2018-05-12T05:11:27.183Z,99.90
2018-05-12T05:12:29.700Z,99.90
2018-05-12T05:13:32.220Z,99.90
2018-05-12T05:14:34.733Z,99.90
2018-05-12T05:15:37.250Z,99.90
2018-05-12T05:16:40.516Z,99.90
2018-05-12T05:17:43.778Z,99.90
2018-05-12T05:18:46.330Z,99.90
2018-05-12T05:19:48.845Z,99.90
2018-05-12T05:20:51.361Z,99.90
2018-05-12T05:21:53.859Z,99.90
2018-05-12T05:22:56.357Z,99.90
2018-05-12T05:23:58.862Z,99.90
2018-05-12T05:25:01.369Z,99.90
2018-05-12T05:26:03.866Z,99.90
2018-05-12T05:27:06.367Z,99.90
2018-05-12T05:28:08.883Z,99.90
2018-05-12T05:29:11.454Z,99.90
2018-05-12T05:30:13.970Z,99.90
2018-05-12T05:31:17.242Z,99.90
2018-05-12T05:32:20.545Z,99.90
2018-05-12T05:33:23.809Z,99.90
2018-05-12T05:34:26.325Z,99.90
2018-05-12T05:35:28.837Z,99.90
2018-05-12T05:36:31.346Z,99.90
2018-05-12T05:37:34.608Z,99.90
2018-05-12T05:38:37.863Z,99.90
2018-05-12T05:39:40.388Z,99.90
2018-05-12T05:40:43.672Z,99.90
2018-05-12T05:41:46.974Z,99.90
2018-05-12T05:42:50.225Z,99.90
2018-05-12T05:43:52.721Z,99.90
2018-05-12T05:44:55.250Z,99.90
2018-05-12T05:45:57.752Z,99.90
2018-05-12T05:47:00.268Z,99.90
2018-05-12T05:48:02.778Z,99.70
2018-05-12T05:49:05.292Z,99.00
2018-05-12T05:50:07.817Z,98.90
2018-05-12T05:51:10.316Z,98.80
2018-05-12T05:52:13.578Z,98.30
2018-05-12T05:53:16.089Z,98.20
2018-05-12T05:54:18.584Z,97.60
2018-05-12T05:55:21.105Z,97.60
2018-05-12T05:56:23.592Z,97.10
2018-05-12T05:57:26.839Z,96.20
2018-05-12T05:58:29.348Z,96.10
2018-05-12T05:59:32.594Z,96.50
2018-05-12T06:00:35.123Z,96.40
2018-05-12T06:01:37.639Z,96.70
2018-05-12T06:02:40.137Z,96.40
2018-05-12T06:03:43.404Z,97.00
2018-05-12T06:04:45.900Z,97.00
2018-05-12T06:05:49.168Z,96.40
2018-05-12T06:06:53.206Z,96.20
2018-05-12T06:07:56.465Z,96.30
2018-05-12T06:08:58.967Z,96.30
2018-05-12T06:10:01.473Z,96.50
2018-05-12T06:11:03.991Z,96.20
2018-05-12T06:12:07.255Z,95.00
2018-05-12T06:13:09.749Z,94.90
2018-05-12T06:14:13.019Z,94.20
2018-05-12T06:15:15.638Z,94.10
2018-05-12T06:16:18.176Z,93.90
2018-05-12T06:17:21.489Z,93.60
2018-05-12T06:18:24.003Z,93.60
2018-05-12T06:19:26.531Z,93.30
2018-05-12T06:20:29.046Z,93.10
2018-05-12T06:21:31.557Z,92.60
2018-05-12T06:22:34.845Z,92.30
2018-05-12T06:23:38.112Z,91.80
2018-05-12T06:24:40.605Z,91.80
2018-05-12T06:25:43.900Z,91.10
2018-05-12T06:26:46.417Z,91.10
2018-05-12T06:27:48.994Z,90.10
2018-05-12T06:28:51.426Z,88.50
2018-05-12T06:29:53.949Z,88.20
2018-05-12T06:30:56.482Z,88.70
2018-05-12T06:31:58.977Z,89.70
2018-05-12T06:33:01.466Z,90.10
2018-05-12T06:34:03.963Z,90.30
2018-05-12T06:35:06.481Z,89.80
2018-05-12T06:36:08.987Z,88.90
2018-05-12T06:37:12.303Z,87.90
2018-05-12T06:38:14.791Z,87.10
2018-05-12T06:39:17.315Z,85.80
2018-05-12T06:40:20.592Z,82.60
2018-05-12T06:41:23.139Z,82.50
2018-05-12T06:42:25.625Z,82.00
2018-05-12T06:43:28.133Z,81.20
2018-05-12T06:44:31.421Z,79.60
2018-05-12T06:45:33.935Z,79.60
2018-05-12T06:46:36.445Z,80.00
2018-05-12T06:47:39.754Z,77.40
2018-05-12T06:48:42.253Z,77.30
2018-05-12T06:49:44.759Z,75.40
2018-05-12T06:50:47.393Z,74.50
2018-05-12T06:51:49.827Z,74.50
2018-05-12T06:52:53.137Z,73.10
2018-05-12T06:53:56.337Z,73.10
2018-05-12T06:54:58.853Z,72.90
2018-05-12T06:56:01.362Z,72.50
2018-05-12T06:57:03.866Z,72.10
2018-05-12T06:58:06.602Z,71.50
2018-05-12T06:59:09.145Z,70.60
2018-05-12T07:00:11.664Z,71.40
2018-05-12T07:01:14.178Z,70.70
2018-05-12T07:02:17.497Z,71.00
2018-05-12T07:03:21.330Z,69.00
2018-05-12T07:04:23.836Z,68.90
2018-05-12T07:05:26.364Z,68.50
2018-05-12T07:06:29.611Z,68.00
2018-05-12T07:07:32.881Z,67.10
2018-05-12T07:08:35.392Z,67.10
2018-05-12T07:09:37.920Z,67.30
2018-05-12T07:10:40.428Z,67.00
2018-05-12T07:11:42.924Z,66.70
2018-05-12T07:12:45.450Z,66.10
2018-05-12T07:13:48.724Z,65.80
2018-05-12T07:14:51.257Z,65.80
2018-05-12T07:15:54.513Z,65.50
2018-05-12T07:16:57.329Z,65.40
2018-05-12T07:17:59.832Z,65.00
2018-05-12T07:19:02.342Z,65.00
2018-05-12T07:20:04.853Z,65.10
2018-05-12T07:21:07.359Z,64.70
2018-05-12T07:22:10.639Z,64.80
2018-05-12T07:23:13.929Z,64.20
2018-05-12T07:24:16.449Z,63.30
2018-05-12T07:25:18.963Z,62.20
2018-05-12T07:26:23.017Z,60.40
2018-05-12T07:27:25.559Z,60.40
2018-05-12T07:28:28.820Z,59.10
2018-05-12T07:29:32.853Z,59.10
2018-05-12T07:30:36.119Z,58.50
2018-05-12T07:31:38.639Z,58.50
2018-05-12T07:32:41.135Z,57.70
2018-05-12T07:33:43.652Z,57.20
2018-05-12T07:34:46.913Z,55.60
2018-05-12T07:35:49.484Z,55.60
2018-05-12T07:36:51.988Z,54.10
2018-05-12T07:37:54.507Z,54.00
2018-05-12T07:38:57.134Z,52.70
2018-05-12T07:39:59.606Z,53.40
2018-05-12T07:41:02.108Z,53.60
2018-05-12T07:42:04.631Z,53.30
2018-05-12T07:43:07.960Z,51.30
2018-05-12T07:44:10.567Z,51.30
2018-05-12T07:45:13.901Z,51.20
2018-05-12T07:46:16.396Z,51.60
2018-05-12T07:47:18.908Z,50.30
2018-05-12T07:48:22.166Z,48.30
2018-05-12T07:49:24.665Z,47.50
2018-05-12T07:50:27.200Z,48.60
2018-05-12T07:51:29.749Z,48.40
2018-05-12T07:52:33.015Z,48.30
2018-05-12T07:53:36.313Z,47.90
2018-05-12T07:54:38.830Z,47.80
2018-05-12T07:55:41.365Z,47.80
2018-05-12T07:56:43.854Z,48.00
2018-05-12T07:57:46.570Z,48.40
2018-05-12T07:58:49.841Z,47.90
2018-05-12T07:59:52.349Z,47.20
2018-05-12T08:00:55.625Z,45.90
2018-05-12T08:01:58.136Z,45.80
2018-05-12T08:03:00.645Z,46.70
2018-05-12T08:04:03.149Z,46.70
2018-05-12T08:05:06.452Z,47.10
2018-05-12T08:06:08.974Z,47.10
2018-05-12T08:07:11.482Z,47.50
2018-05-12T08:08:14.749Z,47.90
2018-05-12T08:09:18.756Z,48.40
2018-05-12T08:10:21.297Z,48.40
2018-05-12T08:11:23.800Z,46.80
2018-05-12T08:12:26.324Z,46.10
2018-05-12T08:13:28.839Z,45.70
2018-05-12T08:14:32.117Z,45.70
2018-05-12T08:15:34.640Z,44.90
2018-05-12T08:16:37.165Z,43.30
2018-05-12T08:17:39.669Z,43.70
2018-05-12T08:18:42.200Z,44.30
2018-05-12T08:19:44.717Z,43.00
2018-05-12T08:20:47.224Z,42.10
2018-05-12T08:21:49.718Z,42.30
2018-05-12T08:22:53.005Z,42.00
2018-05-12T08:23:56.277Z,41.80
2018-05-12T08:24:58.779Z,41.80
2018-05-12T08:26:02.065Z,41.50
2018-05-12T08:27:04.614Z,41.50
2018-05-12T08:28:07.096Z,40.90
2018-05-12T08:29:09.624Z,43.00
2018-05-12T08:30:12.152Z,43.80
2018-05-12T08:31:15.458Z,44.70
2018-05-12T08:32:17.961Z,44.70
2018-05-12T08:33:20.487Z,44.90
2018-05-12T08:34:23.031Z,45.60
2018-05-12T08:35:25.559Z,45.40
2018-05-12T08:36:28.090Z,44.70
2018-05-12T08:37:31.365Z,44.30
2018-05-12T08:38:34.648Z,44.00
2018-05-12T08:39:37.144Z,44.40
2018-05-12T08:40:40.409Z,45.60
2018-05-12T08:41:42.925Z,45.50
2018-05-12T08:42:45.445Z,45.50
2018-05-12T08:43:47.931Z,45.30
2018-05-12T08:44:51.210Z,43.50
2018-05-12T08:45:54.487Z,46.30
2018-05-12T08:46:56.975Z,46.30
2018-05-12T08:47:59.483Z,45.00
2018-05-12T08:49:01.998Z,45.80
2018-05-12T08:50:04.496Z,46.30
2018-05-12T08:51:07.865Z,47.50
2018-05-12T08:52:10.369Z,46.80
2018-05-12T08:53:12.873Z,45.90
2018-05-12T08:54:15.388Z,45.00
2018-05-12T08:55:18.679Z,43.30
2018-05-12T08:56:21.981Z,42.10
2018-05-12T08:57:25.435Z,43.30
2018-05-12T08:58:28.059Z,43.30
2018-05-12T08:59:30.569Z,45.00
2018-05-12T09:00:33.096Z,44.50
2018-05-12T09:01:35.584Z,43.40
2018-05-12T09:02:38.096Z,43.50
2018-05-12T09:03:40.604Z,43.50
2018-05-12T09:04:44.060Z,43.70
2018-05-12T09:05:46.625Z,43.10
2018-05-12T09:06:49.105Z,43.00
2018-05-12T09:07:51.615Z,44.10
2018-05-12T09:08:54.154Z,44.30
2018-05-12T09:09:56.756Z,44.40
2018-05-12T09:10:59.258Z,45.30
2018-05-12T09:12:01.772Z,44.30
2018-05-12T09:13:05.053Z,44.70
2018-05-12T09:14:07.555Z,44.60
2018-05-12T09:15:10.069Z,45.40
2018-05-12T09:16:12.653Z,46.80
2018-05-12T09:17:15.155Z,47.10
2018-05-12T09:18:18.461Z,47.90
2018-05-12T09:19:21.010Z,47.90
2018-05-12T09:20:23.500Z,47.30
2018-05-12T09:21:26.035Z,47.30
2018-05-12T09:22:28.522Z,47.30
2018-05-12T09:23:31.816Z,49.00
2018-05-12T09:24:35.077Z,48.10
2018-05-12T09:25:37.590Z,48.10
2018-05-12T09:26:40.115Z,48.70
2018-05-12T09:27:42.624Z,48.90
2018-05-12T09:28:45.149Z,47.60
2018-05-12T09:29:47.665Z,46.20
2018-05-12T09:30:50.178Z,46.30
2018-05-12T09:31:52.692Z,46.80
2018-05-12T09:32:55.964Z,45.80
2018-05-12T09:33:59.992Z,46.70
2018-05-12T09:35:03.296Z,46.80
2018-05-12T09:36:05.798Z,46.80
2018-05-12T09:37:08.311Z,47.70
2018-05-12T09:38:11.638Z,50.70
2018-05-12T09:39:14.233Z,50.00
2018-05-12T09:40:16.738Z,50.80
2018-05-12T09:41:19.231Z,51.50
2018-05-12T09:42:21.951Z,51.20
2018-05-12T09:43:24.485Z,51.10
2018-05-12T09:44:26.997Z,51.60
2018-05-12T09:45:29.499Z,51.10
2018-05-12T09:46:32.759Z,51.50
2018-05-12T09:47:35.266Z,51.40
2018-05-12T09:48:38.535Z,49.50
2018-05-12T09:49:41.821Z,49.80
2018-05-12T09:50:45.912Z,49.10
2018-05-12T09:51:48.462Z,49.00
2018-05-12T09:52:50.981Z,50.30
2018-05-12T09:53:54.262Z,50.80
2018-05-12T09:54:56.778Z,50.00
2018-05-12T09:55:59.275Z,47.80
2018-05-12T09:57:01.808Z,45.60
2018-05-12T09:58:04.324Z,46.60
2018-05-12T09:59:06.865Z,46.40
2018-05-12T10:00:09.389Z,47.40
2018-05-12T10:01:11.893Z,47.70
2018-05-12T10:02:14.467Z,47.00
2018-05-12T10:03:16.972Z,47.30
2018-05-12T10:04:19.487Z,47.30
2018-05-12T10:05:22.774Z,49.50
2018-05-12T10:06:26.032Z,48.60
2018-05-12T10:07:28.516Z,48.50
2018-05-12T10:08:31.036Z,48.70
2018-05-12T10:09:33.589Z,48.70
2018-05-12T10:10:36.088Z,48.40
2018-05-12T10:11:38.631Z,48.00
2018-05-12T10:12:41.174Z,49.60
2018-05-12T10:13:43.675Z,50.30
2018-05-12T10:14:46.193Z,49.50
2018-05-12T10:15:48.743Z,49.60
2018-05-12T10:16:51.254Z,49.30
2018-05-12T10:17:54.531Z,48.00
2018-05-12T10:18:57.039Z,47.90
2018-05-12T10:20:00.303Z,47.30
2018-05-12T10:21:02.823Z,47.20
2018-05-12T10:22:05.343Z,46.80
2018-05-12T10:23:08.639Z,47.20
2018-05-12T10:24:12.055Z,48.50
2018-05-12T10:25:14.564Z,47.90
2018-05-12T10:26:17.179Z,49.40
2018-05-12T10:27:19.657Z,49.60
2018-05-12T10:28:22.172Z,50.30
2018-05-12T10:29:24.692Z,50.60
2018-05-12T10:30:27.981Z,51.70
2018-05-12T10:31:32.242Z,52.10
2018-05-12T10:32:34.745Z,52.50
2018-05-12T10:33:38.039Z,52.00
2018-05-12T10:34:41.324Z,51.60
2018-05-12T10:35:43.835Z,51.60
2018-05-12T10:36:46.508Z,49.90
2018-05-12T10:37:49.109Z,49.50
2018-05-12T10:38:51.693Z,50.20
2018-05-12T10:39:54.183Z,50.80
2018-05-12T10:40:57.457Z,51.60
2018-05-12T10:42:00.006Z,51.60
2018-05-12T10:43:02.540Z,52.20
2018-05-12T10:44:05.057Z,52.20
2018-05-12T10:45:07.599Z,51.70
2018-05-12T10:46:10.147Z,51.70
2018-05-12T10:47:12.696Z,51.80
2018-05-12T10:48:16.467Z,52.60
2018-05-12T10:49:19.981Z,51.90
2018-05-12T10:50:22.500Z,50.60
2018-05-12T10:51:25.046Z,50.40
2018-05-12T10:52:28.327Z,49.70
2018-05-12T10:53:31.611Z,47.80
2018-05-12T10:54:34.913Z,46.40
2018-05-12T10:55:38.190Z,45.60
2018-05-12T10:56:42.231Z,44.50
2018-05-12T10:57:44.869Z,44.30
2018-05-12T10:58:48.155Z,43.00
2018-05-12T10:59:51.432Z,43.90
2018-05-12T11:00:53.949Z,43.70
2018-05-12T11:01:56.521Z,44.10
2018-05-12T11:02:58.993Z,44.00
2018-05-12T11:04:01.518Z,43.60
2018-05-12T11:05:04.009Z,43.80
2018-05-12T11:06:07.285Z,44.60
2018-05-12T11:07:09.877Z,44.50
2018-05-12T11:08:13.168Z,44.30
2018-05-12T11:09:16.573Z,44.40
2018-05-12T11:10:19.131Z,44.40
2018-05-12T11:11:22.398Z,46.40
2018-05-12T11:12:25.705Z,45.50
2018-05-12T11:13:29.907Z,45.10
2018-05-12T11:14:33.175Z,45.70
2018-05-12T11:15:35.794Z,45.70
2018-05-12T11:16:38.360Z,47.20
2018-05-12T11:17:40.893Z,47.50
2018-05-12T11:18:43.422Z,46.80
2018-05-12T11:19:45.944Z,47.90
2018-05-12T11:20:49.281Z,48.50
2018-05-12T11:21:51.895Z,48.50
2018-05-12T11:22:55.103Z,47.70
2018-05-12T11:23:58.380Z,47.80
2018-05-12T11:25:01.649Z,47.90
2018-05-12T11:26:04.176Z,47.90
2018-05-12T11:27:07.969Z,47.70
2018-05-12T11:28:10.549Z,47.40
2018-05-12T11:29:13.066Z,47.90
2018-05-12T11:30:15.596Z,48.00
2018-05-12T11:31:18.136Z,48.60
2018-05-12T11:32:20.672Z,48.90
2018-05-12T11:33:23.221Z,49.80
2018-05-12T11:34:25.757Z,49.70
2018-05-12T11:35:28.271Z,50.00
2018-05-12T11:36:30.824Z,50.60
2018-05-12T11:37:33.328Z,50.40
2018-05-12T11:38:35.870Z,50.00
2018-05-12T11:39:38.380Z,49.00
2018-05-12T11:40:40.912Z,48.80
2018-05-12T11:41:43.434Z,49.20
2018-05-12T11:42:46.709Z,50.50
2018-05-12T11:43:49.268Z,50.40
2018-05-12T11:44:52.504Z,49.90
2018-05-12T11:45:55.018Z,50.00
2018-05-12T11:46:57.540Z,50.90
2018-05-12T11:48:00.031Z,51.00
2018-05-12T11:49:02.545Z,50.60
2018-05-12T11:50:05.100Z,50.70
2018-05-12T11:51:07.579Z,51.00
2018-05-12T11:52:10.117Z,50.60
2018-05-12T11:53:12.642Z,50.60
2018-05-12T11:54:15.994Z,51.20
2018-05-12T11:55:18.512Z,51.20
2018-05-12T11:56:21.043Z,51.30
2018-05-12T11:57:23.581Z,51.30
2018-05-12T11:58:26.086Z,52.00
2018-05-12T11:59:28.642Z,52.50
2018-05-12T12:00:31.173Z,52.30
2018-05-12T12:01:34.541Z,51.90
2018-05-12T12:02:37.071Z,51.90
2018-05-12T12:03:39.676Z,52.10
2018-05-12T12:04:42.132Z,52.10
2018-05-12T12:05:44.648Z,51.50
2018-05-12T12:06:47.173Z,51.70
2018-05-12T12:07:49.696Z,52.40
2018-05-12T12:08:52.197Z,52.00
2018-05-12T12:09:54.722Z,52.00
2018-05-12T12:10:58.016Z,52.00
2018-05-12T12:12:01.394Z,51.60
2018-05-12T12:13:04.681Z,52.30
2018-05-12T12:14:07.953Z,50.60
2018-05-12T12:15:10.544Z,50.50
2018-05-12T12:16:13.817Z,51.20
2018-05-12T12:17:16.370Z,50.70
2018-05-12T12:18:18.911Z,49.10
2018-05-12T12:19:21.450Z,49.50
2018-05-12T12:20:25.576Z,50.30
2018-05-12T12:21:28.071Z,50.30
2018-05-12T12:22:30.569Z,50.60
2018-05-12T12:23:33.080Z,51.10
2018-05-12T12:24:35.620Z,51.60
2018-05-12T12:25:38.916Z,49.70
2018-05-12T12:26:42.201Z,49.60
2018-05-12T12:27:44.713Z,49.50
2018-05-12T12:28:48.127Z,50.20
2018-05-12T12:29:50.650Z,49.90
2018-05-12T12:30:53.931Z,50.10
2018-05-12T12:31:56.575Z,50.00
2018-05-12T12:32:59.072Z,50.10
2018-05-12T12:34:01.621Z,49.30
2018-05-12T12:35:04.156Z,49.80
2018-05-12T12:36:06.789Z,48.60
2018-05-12T12:37:10.144Z,50.10
2018-05-12T12:38:12.685Z,49.30
2018-05-12T12:39:15.188Z,48.70
2018-05-12T12:40:17.730Z,48.60
2018-05-12T12:41:20.249Z,48.90
2018-05-12T12:42:22.770Z,49.00
2018-05-12T12:43:25.263Z,49.00
2018-05-12T12:44:27.779Z,49.10
2018-05-12T12:45:31.068Z,49.40
2018-05-12T12:46:34.375Z,48.60
2018-05-12T12:47:36.868Z,48.60
2018-05-12T12:48:39.387Z,48.20
2018-05-12T12:49:42.643Z,48.40
2018-05-12T12:50:45.161Z,48.40
2018-05-12T12:51:48.538Z,48.00
2018-05-12T12:52:51.013Z,48.00
2018-05-12T12:53:54.275Z,48.90
2018-05-12T12:54:56.777Z,48.20
2018-05-12T12:56:00.265Z,48.30
2018-05-12T12:57:03.545Z,47.70
2018-05-12T12:58:06.049Z,47.60
2018-05-12T12:59:08.545Z,47.30
2018-05-12T13:00:11.076Z,47.20
2018-05-12T13:01:13.598Z,47.10
2018-05-12T13:02:16.276Z,47.20
2018-05-12T13:03:18.781Z,46.10
2018-05-12T13:04:21.348Z,46.30
2018-05-12T13:05:23.837Z,46.30
2018-05-12T13:06:27.089Z,47.10
2018-05-12T13:07:29.627Z,47.10
2018-05-12T13:08:32.118Z,47.20
2018-05-12T13:09:34.628Z,47.00
2018-05-12T13:10:37.945Z,47.00
2018-05-12T13:11:40.508Z,47.00
2018-05-12T13:12:42.941Z,47.40
2018-05-12T13:13:45.470Z,46.50
2018-05-12T13:14:47.991Z,46.10
2018-05-12T13:15:51.359Z,46.30
2018-05-12T13:16:53.790Z,46.20
2018-05-12T13:17:56.309Z,47.00
2018-05-12T13:18:59.567Z,46.80
2018-05-12T13:20:02.138Z,46.80
2018-05-12T13:21:05.367Z,46.60
2018-05-12T13:22:08.688Z,46.90
2018-05-12T13:23:11.228Z,46.90
2018-05-12T13:24:14.490Z,46.80
2018-05-12T13:25:17.016Z,46.80
2018-05-12T13:26:19.540Z,47.20
2018-05-12T13:27:22.064Z,46.60
2018-05-12T13:28:24.593Z,47.60
2018-05-12T13:29:27.099Z,47.50
2018-05-12T13:30:29.632Z,47.00